Time;durP1;ratioP1;P1;durP2;ratioP2;P2;SDS_P1;SDS_P2;PMS_P1;PMS_P2;Temp;Humidity;BMP_temperature;BMP_pressure;BME280_temperature;BME280_humidity;BME280_pressure;Samples;Min_cycle;Max_cycle;Signal;HPM_P1;HPM_P2
2022/11/12 00:00:45;;;;;;;16.40;14.80;;;6.40;99.90;;;;;;5969394;23;20279;-73
2022/11/12 00:03:12;;;;;;;16.05;14.43;;;6.40;99.90;;;;;;5953042;23;20219;-73
2022/11/12 00:05:40;;;;;;;15.73;14.15;;;6.50;99.90;;;;;;5974779;23;20198;-74
2022/11/12 00:08:07;;;;;;;16.05;14.55;;;6.40;99.90;;;;;;5983733;23;20577;-74
2022/11/12 00:10:34;;;;;;;16.65;15.00;;;6.50;99.90;;;;;;5999202;23;20555;-75
2022/11/12 00:13:01;;;;;;;18.35;16.52;;;6.40;99.90;;;;;;5988021;23;20217;-74
2022/11/12 00:15:29;;;;;;;16.50;14.77;;;6.40;99.90;;;;;;5963858;23;20697;-75
2022/11/12 00:17:58;;;;;;;16.45;14.95;;;6.50;99.90;;;;;;5968390;23;20225;-74
2022/11/12 00:20:26;;;;;;;16.17;14.68;;;6.40;99.90;;;;;;5966643;23;20692;-73
2022/11/12 00:22:53;;;;;;;16.33;14.73;;;6.30;99.90;;;;;;5971902;23;20712;-74
2022/11/12 00:25:20;;;;;;;18.52;15.63;;;6.30;99.90;;;;;;5977936;23;20198;-74
2022/11/12 00:27:48;;;;;;;16.23;14.52;;;6.20;99.90;;;;;;5975708;23;20241;-74
2022/11/12 00:30:16;;;;;;;17.00;15.25;;;6.20;99.90;;;;;;5954383;23;20287;-74
2022/11/12 00:32:43;;;;;;;17.65;16.15;;;6.20;99.90;;;;;;5980986;23;20287;-74
2022/11/12 00:35:13;;;;;;;17.17;15.38;;;6.20;99.90;;;;;;5964266;23;20202;-74
2022/11/12 00:37:40;;;;;;;18.40;16.52;;;6.20;99.90;;;;;;5968468;23;20201;-74
2022/11/12 00:40:08;;;;;;;16.88;15.07;;;6.10;99.90;;;;;;5971680;23;20196;-74
2022/11/12 00:42:35;;;;;;;16.42;14.73;;;6.10;99.90;;;;;;5958875;23;20237;-74
2022/11/12 00:45:05;;;;;;;15.68;14.18;;;6.10;99.90;;;;;;5961275;23;20202;-74
2022/11/12 00:47:32;;;;;;;17.65;16.05;;;6.10;99.90;;;;;;5957916;23;20614;-74
2022/11/12 00:49:59;;;;;;;15.88;14.32;;;6.10;99.90;;;;;;5973514;23;20217;-75
2022/11/12 00:52:28;;;;;;;16.10;14.57;;;6.00;99.90;;;;;;5958049;23;20215;-74
2022/11/12 00:54:55;;;;;;;17.02;15.40;;;6.00;99.90;;;;;;5982231;23;20542;-74
2022/11/12 00:57:22;;;;;;;18.13;16.33;;;5.90;99.90;;;;;;6001147;23;20536;-74
2022/11/12 00:59:50;;;;;;;17.23;15.52;;;5.90;99.90;;;;;;5968479;23;20195;-75
2022/11/12 01:02:18;;;;;;;16.38;14.68;;;5.80;99.90;;;;;;5951483;23;20638;-74
2022/11/12 01:04:45;;;;;;;16.95;15.35;;;5.80;99.90;;;;;;5949480;24;20246;-75
2022/11/12 01:07:14;;;;;;;15.70;14.30;;;5.80;99.90;;;;;;5954185;23;20246;-74
2022/11/12 01:09:45;;;;;;;17.85;16.05;;;5.70;99.90;;;;;;5989996;23;20245;-74
2022/11/12 01:12:13;;;;;;;18.80;16.83;;;5.70;99.90;;;;;;5960841;23;20277;-75
2022/11/12 01:14:41;;;;;;;16.42;14.93;;;5.70;99.90;;;;;;6005337;23;20217;-75
2022/11/12 01:17:09;;;;;;;17.55;15.70;;;5.70;99.90;;;;;;5983176;23;20226;-76
2022/11/12 01:19:36;;;;;;;17.17;15.57;;;5.80;99.90;;;;;;5986940;23;20274;-75
2022/11/12 01:22:03;;;;;;;16.80;15.10;;;5.70;99.90;;;;;;5966309;23;20230;-75
2022/11/12 01:24:31;;;;;;;16.45;14.75;;;5.70;99.90;;;;;;5971822;23;20203;-75
2022/11/12 01:26:59;;;;;;;17.20;15.45;;;5.70;99.90;;;;;;5969657;23;20273;-75
2022/11/12 01:29:26;;;;;;;16.70;15.05;;;5.80;99.90;;;;;;5988014;23;20650;-75
2022/11/12 01:31:54;;;;;;;17.25;15.55;;;5.80;99.90;;;;;;5950604;24;20278;-75
2022/11/12 01:34:21;;;;;;;17.88;16.02;;;5.80;99.90;;;;;;5967735;23;20613;-75
2022/11/12 01:36:48;;;;;;;19.08;17.27;;;5.80;99.90;;;;;;5971115;23;20715;-75
2022/11/12 01:39:15;;;;;;;18.05;16.35;;;5.80;99.90;;;;;;5937488;23;20549;-75
2022/11/12 01:41:43;;;;;;;15.95;14.45;;;5.80;99.90;;;;;;5950117;24;20230;-75
2022/11/12 01:44:16;;;;;;;16.33;14.73;;;5.70;99.90;;;;;;5987438;23;20260;-75
2022/11/12 01:46:57;;;;;;;17.30;15.75;;;5.70;99.90;;;;;;5974789;23;20205;-75
2022/11/12 01:49:29;;;;;;;16.67;14.20;;;5.70;99.90;;;;;;5981680;23;20214;-75
2022/11/12 01:52:04;;;;;;;16.58;14.82;;;5.70;99.90;;;;;;5969540;23;20561;-75
2022/11/12 01:54:32;;;;;;;15.93;14.43;;;5.70;99.90;;;;;;5961636;23;20707;-75
2022/11/12 01:57:00;;;;;;;15.55;14.05;;;5.60;99.90;;;;;;5993488;23;20195;-75
2022/11/12 01:59:34;;;;;;;16.20;14.70;;;5.60;99.90;;;;;;5967200;23;20267;-74
2022/11/12 02:02:01;;;;;;;16.83;15.07;;;5.50;99.90;;;;;;5952289;23;20736;-74
2022/11/12 02:04:29;;;;;;;17.10;15.43;;;5.50;99.90;;;;;;5981900;23;20703;-75
2022/11/12 02:06:57;;;;;;;18.20;16.40;;;5.50;99.90;;;;;;5971186;23;20640;-74
2022/11/12 02:09:26;;;;;;;17.70;15.73;;;5.50;99.90;;;;;;5962496;23;20301;-74
2022/11/12 02:11:53;;;;;;;17.65;15.95;;;5.40;99.90;;;;;;5951813;23;20242;-74
2022/11/12 02:14:20;;;;;;;18.15;16.35;;;5.40;99.90;;;;;;5997836;23;20229;-74
2022/11/12 02:16:50;;;;;;;18.42;16.02;;;5.30;99.90;;;;;;5980802;23;20272;-74
2022/11/12 02:19:17;;;;;;;18.85;16.95;;;5.40;99.90;;;;;;5980989;23;20191;-75
2022/11/12 02:21:46;;;;;;;18.73;17.00;;;4.90;99.90;;;;;;5983335;23;20198;-74
2022/11/12 02:24:33;;;;;;;17.83;16.05;;;5.30;99.90;;;;;;5964945;23;20195;-74
2022/11/12 02:27:00;;;;;;;17.00;15.40;;;5.30;99.90;;;;;;6005173;23;20557;-74
2022/11/12 02:29:28;;;;;;;16.42;14.82;;;5.30;99.90;;;;;;5964701;23;20219;-74
2022/11/12 02:31:55;;;;;;;17.67;16.00;;;5.30;99.90;;;;;;5962552;23;20222;-74
2022/11/12 02:34:22;;;;;;;17.52;15.68;;;5.30;99.90;;;;;;5968853;23;20262;-74
2022/11/12 02:36:51;;;;;;;18.13;16.38;;;5.20;99.90;;;;;;5976544;24;20297;-75
2022/11/12 02:39:18;;;;;;;17.98;16.17;;;5.20;99.90;;;;;;5962120;23;20195;-74
2022/11/12 02:41:45;;;;;;;17.75;15.95;;;5.10;99.90;;;;;;5960292;23;20210;-74
2022/11/12 02:44:12;;;;;;;22.20;16.02;;;5.10;99.90;;;;;;5981192;23;20277;-74
2022/11/12 02:46:39;;;;;;;19.20;17.35;;;5.10;99.90;;;;;;5974208;23;20229;-74
2022/11/12 02:49:06;;;;;;;17.33;15.52;;;5.10;99.90;;;;;;5972224;24;20273;-74
2022/11/12 02:51:34;;;;;;;19.90;17.13;;;5.10;99.90;;;;;;5975189;23;20649;-74
2022/11/12 02:54:02;;;;;;;19.58;17.67;;;5.10;99.90;;;;;;5992053;23;20206;-74
2022/11/12 02:56:30;;;;;;;22.05;18.08;;;5.00;99.90;;;;;;6004089;23;20190;-74
2022/11/12 02:58:58;;;;;;;19.52;17.58;;;5.00;99.90;;;;;;5967107;23;20645;-75
2022/11/12 03:01:25;;;;;;;18.13;16.33;;;5.00;99.90;;;;;;5974934;23;20201;-75
2022/11/12 03:03:52;;;;;;;18.38;16.60;;;5.00;99.90;;;;;;5973449;23;20202;-75
2022/11/12 03:06:19;;;;;;;18.80;16.90;;;4.90;99.90;;;;;;5989501;23;20680;-75
2022/11/12 03:08:46;;;;;;;20.45;17.90;;;4.90;99.90;;;;;;5925778;24;20266;-75
2022/11/12 03:11:22;;;;;;;19.42;17.42;;;4.90;99.90;;;;;;5964003;23;20199;-75
2022/11/12 03:13:49;;;;;;;19.55;17.55;;;4.90;99.90;;;;;;5970374;23;20195;-75
2022/11/12 03:16:16;;;;;;;20.25;17.95;;;4.90;99.90;;;;;;5971957;23;20263;-74
2022/11/12 03:18:44;;;;;;;20.10;18.00;;;4.90;99.90;;;;;;5972845;24;20249;-74
2022/11/12 03:21:11;;;;;;;20.50;18.42;;;4.90;99.90;;;;;;5981053;23;20284;-74
2022/11/12 03:23:39;;;;;;;19.75;17.75;;;4.90;99.90;;;;;;5960296;23;20261;-75
2022/11/12 03:26:06;;;;;;;19.30;17.60;;;4.90;99.90;;;;;;5999284;23;20205;-75
2022/11/12 03:28:35;;;;;;;20.50;18.30;;;4.90;99.90;;;;;;5970780;23;20254;-74
2022/11/12 03:31:02;;;;;;;20.80;18.80;;;4.80;99.90;;;;;;5979486;23;20719;-74
2022/11/12 03:33:29;;;;;;;17.27;15.57;;;4.80;99.90;;;;;;5980761;23;20265;-74
2022/11/12 03:35:56;;;;;;;18.20;16.38;;;4.80;99.90;;;;;;5968783;24;20282;-74
2022/11/12 03:38:24;;;;;;;18.98;17.08;;;4.80;99.90;;;;;;5958439;23;20584;-74
2022/11/12 03:40:51;;;;;;;20.02;17.95;;;4.80;99.90;;;;;;5984737;23;20198;-74
2022/11/12 03:43:19;;;;;;;17.42;15.70;;;4.80;99.90;;;;;;5979265;23;20278;-74
2022/11/12 03:45:47;;;;;;;18.13;15.60;;;4.80;99.90;;;;;;5993109;23;20201;-74
2022/11/12 03:48:14;;;;;;;17.80;16.10;;;4.80;99.90;;;;;;5982593;23;20685;-74
2022/11/12 03:50:42;;;;;;;17.13;15.45;;;4.70;99.90;;;;;;5979191;23;20229;-74
2022/11/12 03:53:09;;;;;;;16.75;15.05;;;4.70;99.90;;;;;;5976177;24;20245;-74
2022/11/12 03:55:36;;;;;;;16.25;14.75;;;4.70;99.90;;;;;;5984291;23;20266;-74
2022/11/12 03:58:04;;;;;;;15.85;14.23;;;4.70;99.90;;;;;;5997983;23;20662;-73
2022/11/12 04:00:31;;;;;;;15.38;13.98;;;4.70;99.90;;;;;;5964455;23;20552;-74
2022/11/12 04:03:00;;;;;;;16.45;15.00;;;4.70;99.90;;;;;;5963664;23;20682;-73
2022/11/12 04:08:44;;;;;;;16.02;14.32;;;4.70;99.90;;;;;;5959243;23;20215;-73
2022/11/12 04:11:15;;;;;;;15.32;13.82;;;4.60;99.90;;;;;;5968791;23;20202;-73
2022/11/12 04:13:46;;;;;;;16.20;14.80;;;4.50;99.90;;;;;;5954702;23;20223;-74
2022/11/12 04:21:54;;;;;;;13.23;12.02;;;4.50;99.90;;;;;;5979587;23;20688;-73
2022/11/12 04:27:12;;;;;;;12.25;11.25;;;4.30;99.90;;;;;;5958023;23;20198;-73
2022/11/12 04:32:26;;;;;;;13.60;12.40;;;4.20;99.90;;;;;;5985024;23;20547;-73
2022/11/12 04:34:55;;;;;;;12.88;11.68;;;4.20;99.90;;;;;;5980478;23;20269;-73
2022/11/12 04:37:23;;;;;;;13.10;11.82;;;4.20;99.90;;;;;;5991061;23;20199;-73
2022/11/12 04:39:51;;;;;;;14.60;12.77;;;4.10;99.90;;;;;;5978277;23;20695;-73
2022/11/12 04:45:04;;;;;;;14.05;12.75;;;4.00;99.90;;;;;;5971318;23;20280;-73
2022/11/12 04:47:34;;;;;;;13.35;12.05;;;4.00;99.90;;;;;;5965916;23;20198;-73
2022/11/12 04:50:04;;;;;;;13.90;12.60;;;4.00;99.90;;;;;;6005734;23;20636;-73
2022/11/12 04:52:32;;;;;;;14.45;11.80;;;4.10;99.90;;;;;;5953069;23;20207;-73
2022/11/12 04:54:59;;;;;;;23.13;12.68;;;4.10;99.90;;;;;;5980118;23;20189;-73
2022/11/12 04:57:26;;;;;;;15.15;11.90;;;4.00;99.90;;;;;;5958376;23;20221;-73
2022/11/12 04:59:54;;;;;;;32.70;15.15;;;4.00;99.90;;;;;;5973319;23;20655;-73
2022/11/12 05:02:21;;;;;;;18.73;13.43;;;4.00;99.90;;;;;;5971781;23;20274;-73
2022/11/12 05:04:48;;;;;;;26.75;12.93;;;4.00;99.90;;;;;;5978675;24;20250;-73
2022/11/12 05:07:17;;;;;;;59.03;18.50;;;4.00;99.90;;;;;;5977574;23;20198;-73
2022/11/12 05:09:44;;;;;;;24.67;13.63;;;4.00;99.90;;;;;;6005191;23;20210;-73
2022/11/12 05:12:11;;;;;;;40.25;15.57;;;4.00;99.90;;;;;;5964183;23;20223;-74
2022/11/12 05:14:39;;;;;;;24.98;14.73;;;4.00;99.90;;;;;;5957165;23;20250;-74
2022/11/12 05:17:06;;;;;;;15.98;13.90;;;4.00;99.90;;;;;;5976690;23;20274;-73
2022/11/12 05:19:34;;;;;;;20.58;12.80;;;4.00;99.90;;;;;;5978209;24;20245;-73
2022/11/12 05:22:07;;;;;;;14.85;12.77;;;4.00;99.90;;;;;;5972405;23;20269;-73
2022/11/12 05:24:40;;;;;;;15.35;13.75;;;4.00;99.90;;;;;;5978545;23;20537;-73
2022/11/12 05:27:11;;;;;;;15.88;13.57;;;4.00;99.90;;;;;;5973006;23;20649;-73
2022/11/12 05:29:39;;;;;;;12.52;11.27;;;4.00;99.90;;;;;;5963415;23;20675;-74
2022/11/12 05:32:07;;;;;;;11.82;10.82;;;4.10;99.90;;;;;;5957801;23;20203;-73
2022/11/12 05:34:35;;;;;;;12.13;10.98;;;4.10;99.90;;;;;;5951399;23;20274;-73
2022/11/12 05:37:03;;;;;;;11.73;10.73;;;4.10;99.90;;;;;;5982258;23;20225;-73
2022/11/12 05:39:30;;;;;;;11.63;10.52;;;4.20;99.90;;;;;;5972220;23;20200;-73
2022/11/12 05:41:59;;;;;;;10.85;9.85;;;4.20;99.90;;;;;;5985446;23;20226;-73
2022/11/12 05:44:26;;;;;;;11.43;10.32;;;4.10;99.90;;;;;;5970362;23;20199;-73
2022/11/12 05:46:53;;;;;;;11.27;10.27;;;4.20;99.90;;;;;;5980823;23;20205;-73
2022/11/12 05:49:21;;;;;;;11.18;10.18;;;4.20;99.90;;;;;;5971536;23;20262;-73
2022/11/12 05:51:48;;;;;;;11.10;10.05;;;4.20;99.90;;;;;;6002836;23;20202;-73
2022/11/12 05:54:15;;;;;;;11.70;10.38;;;4.20;99.90;;;;;;5999700;23;20293;-74
2022/11/12 05:56:42;;;;;;;11.25;10.35;;;4.20;99.90;;;;;;5965536;23;20209;-74
2022/11/12 05:59:13;;;;;;;10.57;9.68;;;4.20;99.90;;;;;;5951138;23;20585;-74
2022/11/12 06:01:42;;;;;;;9.15;8.30;;;4.20;99.90;;;;;;5960990;23;20229;-74
2022/11/12 06:04:11;;;;;;;10.20;9.20;;;4.20;99.90;;;;;;5998322;23;20269;-74
2022/11/12 06:06:39;;;;;;;9.70;8.80;;;4.20;99.90;;;;;;5977468;23;20205;-74
2022/11/12 06:09:06;;;;;;;9.15;8.25;;;4.20;99.90;;;;;;5962081;23;20744;-74
2022/11/12 06:11:34;;;;;;;10.52;9.57;;;4.10;99.90;;;;;;5977399;23;20202;-74
2022/11/12 06:14:02;;;;;;;9.82;8.93;;;4.10;99.90;;;;;;5990487;23;20220;-74
2022/11/12 06:16:31;;;;;;;11.00;10.00;;;4.20;99.90;;;;;;5979295;23;20692;-74
2022/11/12 06:18:59;;;;;;;10.57;9.60;;;4.20;99.90;;;;;;5963729;23;20274;-74
2022/11/12 06:21:26;;;;;;;10.25;9.25;;;4.20;99.90;;;;;;5960646;23;20194;-74
2022/11/12 06:23:55;;;;;;;10.85;9.85;;;4.20;99.90;;;;;;5972412;23;20202;-73
2022/11/12 06:26:24;;;;;;;10.77;9.55;;;4.10;99.90;;;;;;5949805;23;20212;-74
2022/11/12 06:28:52;;;;;;;10.13;9.13;;;4.10;99.90;;;;;;5963651;23;20211;-74
2022/11/12 06:31:20;;;;;;;11.15;10.13;;;4.10;99.90;;;;;;5971920;23;20626;-74
2022/11/12 06:33:50;;;;;;;10.52;9.52;;;4.10;99.90;;;;;;5969493;23;20307;-74
2022/11/12 06:36:19;;;;;;;11.13;10.10;;;4.20;99.90;;;;;;5976156;23;20195;-72
2022/11/12 06:38:47;;;;;;;10.60;9.70;;;4.20;99.90;;;;;;5955671;23;20192;-75
2022/11/12 06:41:15;;;;;;;11.25;10.13;;;4.10;99.90;;;;;;5964167;23;20191;-74
2022/11/12 06:43:42;;;;;;;11.80;10.60;;;4.10;99.90;;;;;;5957320;23;20257;-73
2022/11/12 06:46:12;;;;;;;11.02;10.02;;;4.10;99.90;;;;;;5968965;23;20242;-73
2022/11/12 06:48:40;;;;;;;12.25;11.05;;;4.10;99.90;;;;;;5949278;23;20199;-73
2022/11/12 06:51:16;;;;;;;13.35;11.95;;;4.10;99.90;;;;;;5952536;23;20202;-72
2022/11/12 06:53:43;;;;;;;15.50;10.68;;;4.00;99.90;;;;;;5956747;23;20549;-73
2022/11/12 06:56:12;;;;;;;14.00;12.52;;;4.00;99.90;;;;;;5968032;23;20238;-74
2022/11/12 06:58:40;;;;;;;74.85;15.40;;;4.10;99.90;;;;;;5977876;23;20205;-74
2022/11/12 07:01:11;;;;;;;95.72;18.75;;;4.10;99.90;;;;;;5984713;23;20268;-74
2022/11/12 07:03:39;;;;;;;14.00;12.68;;;4.20;99.90;;;;;;5974290;23;20537;-74
2022/11/12 07:06:11;;;;;;;64.85;14.45;;;4.20;99.90;;;;;;5962917;23;20239;-77
2022/11/12 07:08:39;;;;;;;14.55;12.77;;;4.30;99.90;;;;;;5967892;24;20250;-76
2022/11/12 07:11:07;;;;;;;54.33;14.43;;;4.40;99.90;;;;;;5967957;23;20740;-76
2022/11/12 07:13:37;;;;;;;59.35;15.52;;;4.60;99.90;;;;;;5959435;23;20195;-77
2022/11/12 07:16:07;;;;;;;152.90;19.13;;;4.80;99.90;;;;;;5949354;23;20220;-74
2022/11/12 07:18:35;;;;;;;16.20;12.32;;;4.80;99.90;;;;;;5951512;23;20187;-73
2022/11/12 07:21:04;;;;;;;43.08;12.50;;;4.80;99.90;;;;;;5948468;23;20553;-73
2022/11/12 07:23:34;;;;;;;62.55;14.20;;;4.80;99.90;;;;;;5952728;24;20229;-74
2022/11/12 07:26:04;;;;;;;55.70;14.65;;;4.70;99.90;;;;;;5960527;23;20198;-74
2022/11/12 07:28:32;;;;;;;39.45;12.68;;;4.80;99.90;;;;;;5962069;23;20203;-73
2022/11/12 07:31:00;;;;;;;69.60;13.30;;;4.90;99.90;;;;;;5949728;23;20219;-73
2022/11/12 07:33:29;;;;;;;29.10;11.43;;;4.90;99.90;;;;;;5957611;23;20188;-73
2022/11/12 07:36:00;;;;;;;71.50;14.02;;;4.90;99.90;;;;;;5981404;23;20206;-73
2022/11/12 07:38:29;;;;;;;17.83;10.00;;;4.80;99.90;;;;;;5972900;23;20199;-73
2022/11/12 07:41:02;;;;;;;62.33;13.95;;;4.80;99.90;;;;;;5974569;23;20269;-73
2022/11/12 07:43:30;;;;;;;39.97;12.07;;;4.80;99.90;;;;;;5964520;23;20202;-73
2022/11/12 07:45:59;;;;;;;35.88;11.63;;;4.80;99.90;;;;;;5972229;23;20198;-73
2022/11/12 07:48:26;;;;;;;46.78;12.55;;;4.70;99.90;;;;;;5976632;24;20577;-72
2022/11/12 07:51:00;;;;;;;57.20;13.05;;;4.70;99.90;;;;;;5964835;23;20272;-75
2022/11/12 07:53:27;;;;;;;69.88;15.30;;;4.80;99.90;;;;;;5951401;23;20274;-74
2022/11/12 07:55:55;;;;;;;18.00;11.15;;;5.00;99.90;;;;;;5959453;23;20656;-74
2022/11/12 07:58:27;;;;;;;18.38;10.70;;;5.10;99.90;;;;;;5962890;23;20196;-74
2022/11/12 08:00:54;;;;;;;10.80;9.75;;;5.30;99.90;;;;;;5969455;23;20184;-74
2022/11/12 08:03:22;;;;;;;11.48;10.45;;;5.30;99.90;;;;;;5963816;23;20198;-74
2022/11/12 08:05:49;;;;;;;11.48;10.38;;;5.30;99.90;;;;;;5965120;23;20221;-73
2022/11/12 08:08:17;;;;;;;10.90;10.00;;;5.10;99.90;;;;;;5961206;23;20549;-73
2022/11/12 08:10:44;;;;;;;10.80;9.90;;;5.30;99.90;;;;;;5958254;23;20685;-72
2022/11/12 08:13:11;;;;;;;10.05;9.20;;;5.40;99.90;;;;;;5961679;23;20250;-73
2022/11/12 08:15:41;;;;;;;10.27;9.38;;;5.50;99.90;;;;;;5951327;23;20194;-73
2022/11/12 08:18:09;;;;;;;9.10;8.40;;;5.70;99.90;;;;;;5974020;23;20191;-71
2022/11/12 08:20:36;;;;;;;8.80;8.10;;;6.00;99.90;;;;;;5976108;23;20219;-72
2022/11/12 08:23:04;;;;;;;8.20;7.50;;;6.20;99.90;;;;;;5965698;23;20206;-71
2022/11/12 08:25:31;;;;;;;8.18;7.57;;;6.30;99.90;;;;;;5973992;23;20195;-72
2022/11/12 08:27:59;;;;;;;8.90;8.10;;;6.40;99.90;;;;;;5976455;23;20191;-72
2022/11/12 08:30:27;;;;;;;8.10;7.40;;;6.70;99.90;;;;;;5953827;23;20693;-71
2022/11/12 08:33:00;;;;;;;6.50;6.00;;;7.20;99.90;;;;;;5974937;23;20551;-71
2022/11/12 08:35:28;;;;;;;6.45;5.95;;;7.60;99.90;;;;;;5973957;23;21570;-72
2022/11/12 08:37:59;;;;;;;6.25;5.75;;;8.00;99.90;;;;;;5971804;23;20189;-72
2022/11/12 08:40:27;;;;;;;6.80;6.30;;;8.40;99.90;;;;;;5984247;23;20651;-72
2022/11/12 08:42:59;;;;;;;6.93;6.43;;;8.30;99.90;;;;;;5961430;23;20229;-71
2022/11/12 08:45:26;;;;;;;6.22;5.72;;;8.80;99.90;;;;;;5953027;23;20766;-72
2022/11/12 08:47:53;;;;;;;5.78;5.38;;;9.10;99.90;;;;;;5952838;23;20220;-72
2022/11/12 08:50:21;;;;;;;4.93;4.55;;;9.60;99.90;;;;;;5976113;23;20210;-74
2022/11/12 08:52:48;;;;;;;5.82;5.32;;;10.00;99.90;;;;;;5970347;23;20740;-74
2022/11/12 08:55:15;;;;;;;5.78;5.28;;;10.30;99.90;;;;;;5967416;23;20195;-71
2022/11/12 08:57:44;;;;;;;4.75;4.35;;;10.70;99.90;;;;;;5959462;23;21433;-71
2022/11/12 09:00:12;;;;;;;5.55;5.07;;;10.80;99.90;;;;;;5966294;23;20298;-71
2022/11/12 09:02:40;;;;;;;5.35;4.95;;;11.20;99.90;;;;;;5970166;23;20199;-73
2022/11/12 09:05:08;;;;;;;5.60;5.20;;;11.70;99.90;;;;;;5964085;23;20183;-73
2022/11/12 09:07:36;;;;;;;5.00;4.70;;;12.10;99.90;;;;;;5960793;23;21088;-73
2022/11/12 09:10:04;;;;;;;5.23;4.73;;;12.40;99.90;;;;;;5968206;23;20466;-72
2022/11/12 09:12:32;;;;;;;5.63;5.20;;;12.60;99.90;;;;;;6006116;23;20769;-72
2022/11/12 09:14:59;;;;;;;5.23;4.93;;;12.60;99.90;;;;;;5987077;23;20438;-72
2022/11/12 09:17:28;;;;;;;5.20;4.90;;;12.60;99.90;;;;;;5997149;23;20480;-72
2022/11/12 09:19:55;;;;;;;5.50;5.10;;;12.60;99.90;;;;;;6004420;23;20444;-72
2022/11/12 09:22:22;;;;;;;5.40;5.00;;;12.40;99.90;;;;;;5978767;24;20420;-71
2022/11/12 09:24:51;;;;;;;5.33;4.90;;;12.50;99.90;;;;;;5976417;23;20528;-72
2022/11/12 09:27:18;;;;;;;5.53;5.13;;;12.50;99.90;;;;;;5982729;23;20995;-71
2022/11/12 09:29:46;;;;;;;5.50;5.10;;;12.40;99.90;;;;;;5960198;23;20458;-72
2022/11/12 09:32:13;;;;;;;5.20;4.80;;;11.90;99.90;;;;;;6004513;23;20536;-71
2022/11/12 09:34:40;;;;;;;5.22;4.82;;;11.60;99.90;;;;;;5995896;23;20667;-71
2022/11/12 09:37:07;;;;;;;4.90;4.50;;;11.50;99.90;;;;;;5978923;23;20233;-72
2022/11/12 09:39:34;;;;;;;5.10;4.70;;;11.30;99.90;;;;;;5975227;24;20199;-71
2022/11/12 09:42:08;;;;;;;5.10;4.80;;;10.70;99.90;;;;;;6000158;23;20201;-71
2022/11/12 09:44:40;;;;;;;5.10;4.55;;;10.40;99.90;;;;;;5981940;23;20198;-72
2022/11/12 09:47:15;;;;;;;4.63;4.32;;;10.50;99.90;;;;;;5990881;23;20331;-72
2022/11/12 09:49:49;;;;;;;4.80;4.40;;;10.80;99.90;;;;;;5964531;23;20190;-72
2022/11/12 09:52:20;;;;;;;4.60;4.30;;;11.30;99.90;;;;;;5978935;23;20625;-72
2022/11/12 09:54:52;;;;;;;4.33;4.03;;;11.70;99.90;;;;;;5968428;23;20206;-72
2022/11/12 09:57:21;;;;;;;5.28;4.88;;;12.10;99.90;;;;;;6003981;23;20429;-72
2022/11/12 09:59:48;;;;;;;4.95;4.65;;;12.20;99.90;;;;;;5978223;23;20202;-72
2022/11/12 10:02:27;;;;;;;5.00;4.70;;;12.00;99.90;;;;;;5982173;23;20549;-72
2022/11/12 10:05:09;;;;;;;5.95;5.45;;;12.10;99.90;;;;;;5976161;23;20215;-71
2022/11/12 10:07:46;;;;;;;5.05;4.65;;;11.90;99.90;;;;;;5978400;23;20195;-72
2022/11/12 10:10:18;;;;;;;5.10;4.70;;;11.60;99.90;;;;;;5987484;23;20221;-72
2022/11/12 10:12:58;;;;;;;4.90;4.60;;;11.70;99.90;;;;;;5981715;23;20587;-71
2022/11/12 10:18:38;;;;;;;4.70;4.40;;;11.80;99.90;;;;;;6003083;23;20270;-72
2022/11/12 10:21:15;;;;;;;5.57;5.10;;;11.80;99.90;;;;;;5992081;23;20635;-72
2022/11/12 10:23:45;;;;;;;5.80;5.30;;;11.70;99.90;;;;;;6006626;23;20196;-71
2022/11/12 10:26:14;;;;;;;5.13;4.72;;;11.80;99.90;;;;;;5982234;23;20285;-72
2022/11/12 10:28:47;;;;;;;5.60;5.20;;;11.70;99.90;;;;;;5976207;23;20190;-72
2022/11/12 10:31:16;;;;;;;5.25;4.85;;;11.40;99.90;;;;;;5997071;23;20218;-71
2022/11/12 10:33:43;;;;;;;4.53;4.22;;;11.50;99.90;;;;;;5984430;23;20246;-71
2022/11/12 10:36:26;;;;;;;5.10;4.70;;;11.40;99.90;;;;;;5999671;23;20269;-72
2022/11/12 10:38:55;;;;;;;4.50;4.10;;;11.60;99.90;;;;;;5997450;23;20265;-72
2022/11/12 10:41:25;;;;;;;4.50;4.20;;;11.80;99.90;;;;;;5971411;23;20191;-72
2022/11/12 10:43:59;;;;;;;5.47;5.05;;;12.00;99.90;;;;;;5950372;24;20650;-72
2022/11/12 10:46:28;;;;;;;4.43;4.13;;;12.50;99.90;;;;;;5977986;23;20225;-72
2022/11/12 10:48:59;;;;;;;5.10;4.70;;;13.00;99.90;;;;;;5958768;23;20519;-71
2022/11/12 10:51:31;;;;;;;4.13;3.83;;;13.30;99.90;;;;;;5995643;23;20466;-72
2022/11/12 10:53:58;;;;;;;4.80;4.50;;;13.60;99.90;;;;;;5984578;23;20443;-72
2022/11/12 10:56:29;;;;;;;4.17;3.87;;;13.90;99.90;;;;;;5982720;23;20441;-72
2022/11/12 10:59:14;;;;;;;4.27;3.97;;;13.80;99.90;;;;;;5983031;23;20513;-72
2022/11/12 11:01:42;;;;;;;4.27;3.97;;;13.50;99.90;;;;;;5996002;23;20834;-71
2022/11/12 11:04:19;;;;;;;4.80;4.50;;;13.20;99.90;;;;;;5978088;23;20849;-71
2022/11/12 11:06:46;;;;;;;4.80;4.10;;;13.30;99.90;;;;;;5978695;23;20530;-71
2022/11/12 11:09:19;;;;;;;4.10;3.80;;;13.50;99.90;;;;;;5980353;23;20459;-71
2022/11/12 11:11:50;;;;;;;4.30;4.00;;;13.60;99.90;;;;;;6003685;23;20495;-72
2022/11/12 11:14:31;;;;;;;4.47;4.17;;;14.00;99.90;;;;;;6004379;23;20529;-71
2022/11/12 11:17:00;;;;;;;4.50;4.20;;;14.30;99.90;;;;;;5980617;23;20448;-72
2022/11/12 11:19:35;;;;;;;4.40;4.10;;;14.50;99.90;;;;;;5998673;23;20901;-72
2022/11/12 11:22:14;;;;;;;5.13;4.73;;;14.50;99.90;;;;;;5955818;23;20446;-72
2022/11/12 11:24:51;;;;;;;5.43;4.93;;;14.50;99.90;;;;;;5978492;23;20451;-72
2022/11/12 11:27:29;;;;;;;4.30;4.00;;;14.70;99.90;;;;;;5986852;23;20441;-72
2022/11/12 11:30:24;;;;;;;4.70;4.40;;;15.10;99.90;;;;;;5981385;23;20808;-72
2022/11/12 11:33:19;;;;;;;4.17;3.87;;;15.50;99.90;;;;;;6003991;23;20460;-72
2022/11/12 11:36:17;;;;;;;4.77;4.47;;;15.70;99.90;;;;;;5984098;23;20527;-72
2022/11/12 11:38:54;;;;;;;5.07;4.70;;;16.00;99.90;;;;;;5973873;23;20442;-72
2022/11/12 11:41:36;;;;;;;4.50;4.20;;;16.00;99.90;;;;;;5959132;23;20493;-72
2022/11/12 11:44:15;;;;;;;4.30;4.00;;;16.10;99.90;;;;;;5950046;24;20822;-72
2022/11/12 11:46:55;;;;;;;4.80;4.40;;;16.30;99.90;;;;;;5968878;23;20459;-72
2022/11/12 11:50:04;;;;;;;4.83;4.53;;;16.40;99.90;;;;;;5976834;23;20458;-71
2022/11/12 11:52:42;;;;;;;5.43;4.97;;;16.40;99.90;;;;;;5940108;23;20452;-71
2022/11/12 11:55:25;;;;;;;5.83;4.13;;;16.50;99.90;;;;;;5996671;23;20437;-72
2022/11/12 11:58:02;;;;;;;4.80;4.40;;;16.50;99.90;;;;;;5960670;23;20446;-72
2022/11/12 12:00:40;;;;;;;5.27;4.90;;;16.50;99.90;;;;;;5973997;23;20448;-71
2022/11/12 12:03:29;;;;;;;4.60;4.30;;;16.70;99.90;;;;;;5972009;23;20525;-73
2022/11/12 12:06:12;;;;;;;5.23;4.83;;;16.40;99.90;;;;;;5975330;23;20455;-71
2022/11/12 12:08:55;;;;;;;5.30;4.90;;;16.20;99.90;;;;;;5976876;23;20855;-72
2022/11/12 12:11:30;;;;;;;5.13;4.73;;;16.20;99.90;;;;;;6004137;23;20539;-72
2022/11/12 12:14:16;;;;;;;4.60;4.27;;;16.30;99.90;;;;;;6005140;23;20850;-71
2022/11/12 12:16:56;;;;;;;4.80;4.40;;;16.40;99.90;;;;;;5979263;23;20469;-72
2022/11/12 12:19:46;;;;;;;5.20;4.70;;;16.40;99.90;;;;;;5983428;23;20420;-72
2022/11/12 12:22:18;;;;;;;5.60;5.10;;;16.20;99.90;;;;;;5968078;23;20991;-72
2022/11/12 12:24:51;;;;;;;5.10;4.70;;;15.90;99.90;;;;;;5969225;23;20890;-72
2022/11/12 12:27:21;;;;;;;5.30;4.90;;;15.90;99.90;;;;;;5980729;23;20444;-72
2022/11/12 12:29:51;;;;;;;6.30;5.70;;;16.10;99.90;;;;;;5989171;23;20425;-72
2022/11/12 12:32:26;;;;;;;6.03;5.43;;;16.30;99.90;;;;;;6006424;23;20878;-72
2022/11/12 12:35:03;;;;;;;5.97;5.47;;;16.40;99.90;;;;;;5996383;23;20499;-71
2022/11/12 12:37:37;;;;;;;5.57;5.17;;;16.50;99.90;;;;;;6005626;23;20417;-71
2022/11/12 12:40:17;;;;;;;5.57;5.10;;;16.70;99.90;;;;;;5991921;23;20431;-72
2022/11/12 12:42:48;;;;;;;5.30;4.80;;;16.90;99.90;;;;;;5979062;23;20499;-71
2022/11/12 12:45:38;;;;;;;5.70;5.30;;;17.10;99.90;;;;;;5994999;23;20531;-71
2022/11/12 12:48:08;;;;;;;5.53;5.00;;;17.20;99.90;;;;;;6003839;23;20417;-72
2022/11/12 12:50:39;;;;;;;5.50;5.10;;;17.30;99.90;;;;;;5993144;23;20489;-71
2022/11/12 12:53:17;;;;;;;5.23;4.80;;;17.30;99.90;;;;;;6006843;23;20919;-71
2022/11/12 12:55:46;;;;;;;5.30;4.90;;;17.40;99.90;;;;;;6002512;23;20574;-71
2022/11/12 12:58:20;;;;;;;5.77;4.83;;;17.30;99.90;;;;;;6006828;23;20429;-70
2022/11/12 13:00:50;;;;;;;4.97;4.60;;;17.30;99.90;;;;;;5978910;23;20517;-72
2022/11/12 13:03:52;;;;;;;5.17;4.77;;;17.20;99.90;;;;;;5979050;23;20450;-72
2022/11/12 13:06:30;;;;;;;5.30;4.90;;;17.00;99.90;;;;;;5950900;24;20430;-72
2022/11/12 13:09:02;;;;;;;5.50;5.00;;;16.60;99.90;;;;;;5956966;23;20470;-71
2022/11/12 13:15:20;;;;;;;5.93;5.40;;;16.20;99.90;;;;;;5991574;23;20479;-72
2022/11/12 13:17:51;;;;;;;5.67;5.20;;;16.20;99.90;;;;;;5951686;24;21192;-72
2022/11/12 13:20:38;;;;;;;5.67;5.27;;;16.10;99.90;;;;;;5993960;23;21065;-72